Time;durP1;ratioP1;P1;durP2;ratioP2;P2;SDS_P1;SDS_P2;PMS_P1;PMS_P2;Temp;Humidity;BMP_temperature;BMP_pressure;BME280_temperature;BME280_humidity;BME280_pressure;Samples;Min_cycle;Max_cycle;Signal;HPM_P1;HPM_P2
2022/05/04 00:00:21;;;;;;;0.00;0.00;;;;;;;8.62;78.13;98982.00;5053756;28;20029;-74
2022/05/04 00:02:47;;;;;;;0.00;0.00;;;;;;;8.65;78.12;98984.16;5053876;28;20032;-74
2022/05/04 00:05:12;;;;;;;0.00;0.00;;;;;;;8.59;78.00;98987.88;5053544;28;20108;-73
2022/05/04 00:07:38;;;;;;;0.00;0.00;;;;;;;8.55;77.65;98989.44;5054137;28;20036;-73
2022/05/04 00:10:05;;;;;;;0.00;0.00;;;;;;;8.55;77.84;98986.00;5054257;28;20456;-73
2022/05/04 00:12:32;;;;;;;0.00;0.00;;;;;;;8.57;77.81;98986.50;5053984;28;20029;-74
2022/05/04 00:14:57;;;;;;;0.00;0.00;;;;;;;8.55;77.72;98986.78;5054288;28;20037;-74
2022/05/04 00:17:23;;;;;;;0.00;0.00;;;;;;;8.54;78.15;98989.72;5053272;28;20040;-75
2022/05/04 00:19:48;;;;;;;0.00;0.00;;;;;;;8.52;77.67;98986.50;5053707;28;20477;-75
2022/05/04 00:22:18;;;;;;;0.00;0.00;;;;;;;8.53;77.96;98998.78;5054382;28;20040;-75
2022/05/04 00:24:44;;;;;;;0.00;0.00;;;;;;;8.46;79.11;98991.03;5053757;28;20408;-74
2022/05/04 00:27:09;;;;;;;0.00;0.00;;;;;;;8.54;78.92;98995.06;5053661;28;20029;-74
2022/05/04 00:29:35;;;;;;;0.00;0.00;;;;;;;8.53;79.29;98996.91;5053482;28;20032;-74
2022/05/04 00:32:00;;;;;;;0.00;0.00;;;;;;;8.54;79.25;98990.50;5053458;28;20453;-74
2022/05/04 00:34:26;;;;;;;0.00;0.00;;;;;;;8.54;80.05;98995.06;5053651;28;20021;-74
2022/05/04 00:36:52;;;;;;;0.00;0.00;;;;;;;8.54;80.68;98987.84;5053713;28;20082;-74
2022/05/04 00:39:17;;;;;;;0.00;0.00;;;;;;;8.50;81.65;98981.44;5053586;28;20029;-74
2022/05/04 00:41:42;;;;;;;0.00;0.00;;;;;;;8.53;81.76;98977.47;5053535;28;20891;-74
2022/05/04 00:44:08;;;;;;;0.00;0.00;;;;;;;8.52;81.47;98986.50;5053668;28;20033;-75
2022/05/04 00:46:33;;;;;;;0.00;0.00;;;;;;;8.56;80.33;99003.59;5052907;28;20025;-73
2022/05/04 00:48:59;;;;;;;0.00;0.00;;;;;;;8.45;80.21;98990.19;5053499;28;20032;-75
2022/05/04 00:51:24;;;;;;;0.00;0.00;;;;;;;8.43;80.06;98997.66;5053563;28;20056;-74
2022/05/04 00:53:50;;;;;;;0.00;0.00;;;;;;;8.42;80.26;99004.06;5053494;28;20061;-74
2022/05/04 00:56:16;;;;;;;0.10;0.10;;;;;;;8.36;79.38;98999.78;5053636;28;20029;-74
2022/05/04 00:58:56;;;;;;;0.00;0.00;;;;;;;8.33;80.66;99000.31;5053158;28;20478;-74
2022/05/04 01:01:30;;;;;;;0.00;0.00;;;;;;;8.29;81.17;99008.00;5052883;28;20025;-75
2022/05/04 01:03:58;;;;;;;0.00;0.00;;;;;;;8.33;82.33;99002.97;5051209;28;20040;-75
2022/05/04 01:06:24;;;;;;;0.00;0.00;;;;;;;8.30;82.52;98998.97;5053489;28;20044;-75
2022/05/04 01:08:51;;;;;;;0.00;0.00;;;;;;;8.29;83.48;99000.03;5053435;28;20037;-76
2022/05/04 01:11:17;;;;;;;0.00;0.00;;;;;;;8.29;84.86;98993.91;5053486;28;20021;-76
2022/05/04 01:13:43;;;;;;;0.15;0.15;;;;;;;8.38;86.09;98996.84;5053224;28;20033;-76
2022/05/04 01:16:08;;;;;;;0.00;0.00;;;;;;;8.45;87.13;98995.53;5053304;28;20035;-75
2022/05/04 01:18:34;;;;;;;0.00;0.00;;;;;;;8.51;87.63;98993.72;5052681;28;20033;-76
2022/05/04 01:21:01;;;;;;;0.10;0.10;;;;;;;8.64;88.18;98995.06;5053088;28;20472;-75
2022/05/04 01:23:27;;;;;;;0.00;0.00;;;;;;;8.71;88.74;98995.59;5052541;28;20162;-75
2022/05/04 01:25:55;;;;;;;0.00;0.00;;;;;;;8.78;88.83;99003.38;5053016;28;20108;-74
2022/05/04 01:28:20;;;;;;;0.00;0.00;;;;;;;8.81;88.91;98994.81;5052191;28;20481;-74
2022/05/04 01:30:46;;;;;;;0.00;0.00;;;;;;;8.88;88.41;98987.34;5052312;28;20052;-74
2022/05/04 01:33:12;;;;;;;0.00;0.00;;;;;;;8.96;88.26;98992.16;5052247;28;20071;-74
2022/05/04 01:35:38;;;;;;;0.00;0.00;;;;;;;9.02;87.80;98995.66;5052489;28;20399;-74
2022/05/04 01:38:04;;;;;;;0.00;0.00;;;;;;;9.04;88.02;98987.38;5052581;28;20036;-74
2022/05/04 01:40:29;;;;;;;0.10;0.10;;;;;;;9.09;88.21;98996.19;5052228;28;20053;-74
2022/05/04 01:42:55;;;;;;;0.00;0.00;;;;;;;9.11;87.95;98995.91;5051796;28;20021;-74
2022/05/04 01:45:20;;;;;;;0.00;0.00;;;;;;;9.20;87.64;99001.50;5052480;28;20056;-74
2022/05/04 01:47:50;;;;;;;0.00;0.00;;;;;;;9.24;87.75;98999.88;5051566;28;20025;-74
2022/05/04 01:50:16;;;;;;;0.00;0.00;;;;;;;9.26;87.67;99003.09;5052432;28;20024;-74
2022/05/04 01:52:42;;;;;;;0.00;0.00;;;;;;;9.28;87.49;99009.75;5052117;28;20556;-75
2022/05/04 01:55:09;;;;;;;0.00;0.00;;;;;;;9.28;87.48;99009.75;5052275;28;20061;-74
2022/05/04 01:57:34;;;;;;;0.10;0.10;;;;;;;9.33;87.52;99008.97;5051552;28;20067;-74
2022/05/04 02:00:00;;;;;;;0.22;0.22;;;;;;;9.33;87.39;99006.28;5066784;28;20082;-74
2022/05/04 02:02:26;;;;;;;0.30;0.30;;;;;;;9.34;87.50;99007.09;5051780;28;20021;-74
2022/05/04 02:04:52;;;;;;;0.00;0.00;;;;;;;9.36;87.96;99007.63;5051343;28;20108;-74
2022/05/04 02:07:18;;;;;;;0.00;0.00;;;;;;;9.35;87.73;99000.69;5051756;28;20111;-74
2022/05/04 02:09:43;;;;;;;0.00;0.00;;;;;;;9.39;87.65;99004.44;5051917;28;20033;-74
2022/05/04 02:12:09;;;;;;;0.30;0.30;;;;;;;9.39;87.70;99005.22;5067359;28;20163;-74
2022/05/04 02:14:35;;;;;;;0.73;0.73;;;;;;;9.40;87.69;99006.81;5052258;28;20032;-74
2022/05/04 02:17:01;;;;;;;0.35;0.35;;;;;;;9.41;87.75;99008.44;5052242;28;20099;-76
2022/05/04 02:19:26;;;;;;;0.15;0.15;;;;;;;9.47;87.41;99021.75;5050511;28;20060;-75
2022/05/04 02:21:52;;;;;;;1.55;1.45;;;;;;;9.45;87.73;99022.03;5051531;28;20056;-74
2022/05/04 02:24:18;;;;;;;0.05;0.05;;;;;;;9.47;88.04;99019.09;5051741;28;20029;-74
2022/05/04 02:26:43;;;;;;;0.30;0.30;;;;;;;9.48;88.08;99023.38;5051384;28;20036;-75
2022/05/04 02:29:09;;;;;;;0.00;0.00;;;;;;;9.48;88.14;99029.50;5051344;28;20029;-75
2022/05/04 02:31:34;;;;;;;0.15;0.15;;;;;;;9.45;87.77;99028.16;5051150;28;20036;-75
2022/05/04 02:34:00;;;;;;;0.20;0.20;;;;;;;9.48;87.86;99034.84;5051011;28;20036;-76
2022/05/04 02:39:09;;;;;;;0.00;0.00;;;;;;;9.51;87.79;99030.81;5051065;28;20094;-75
2022/05/04 02:41:34;;;;;;;0.00;0.00;;;;;;;9.44;87.34;99029.22;5051464;28;20020;-76
2022/05/04 02:44:03;;;;;;;0.10;0.10;;;;;;;9.52;86.99;99030.59;5050862;28;20526;-75
2022/05/04 02:46:30;;;;;;;0.00;0.00;;;;;;;9.53;87.39;99031.38;5047661;28;20467;-74
2022/05/04 02:48:56;;;;;;;0.08;0.08;;;;;;;9.55;86.91;99042.59;5046729;28;20147;-74
2022/05/04 02:51:21;;;;;;;0.10;0.10;;;;;;;9.56;87.03;99041.53;5033031;28;20064;-75
2022/05/04 02:53:47;;;;;;;0.00;0.00;;;;;;;9.56;86.82;99046.88;5040148;28;20053;-75
2022/05/04 02:56:15;;;;;;;0.15;0.15;;;;;;;9.56;86.70;99052.19;5042558;28;20029;-75
2022/05/04 02:58:43;;;;;;;0.28;0.28;;;;;;;9.53;86.61;99047.38;5050474;28;20039;-75
2022/05/04 03:04:08;;;;;;;0.00;0.00;;;;;;;9.60;85.60;99058.59;5036986;28;20037;-75
2022/05/04 03:06:34;;;;;;;0.32;0.32;;;;;;;9.58;85.60;99064.22;5050859;28;20504;-74
2022/05/04 03:09:00;;;;;;;0.00;0.00;;;;;;;9.60;85.46;99067.38;5051070;28;20090;-74
2022/05/04 03:14:10;;;;;;;0.63;0.43;;;;;;;9.57;85.45;99075.13;5031075;28;20091;-74
2022/05/04 03:16:36;;;;;;;0.00;0.00;;;;;;;9.60;86.03;99085.28;5030847;28;20029;-74
2022/05/04 03:19:05;;;;;;;0.52;0.52;;;;;;;9.63;85.25;99083.94;5030995;28;20050;-74
2022/05/04 03:21:32;;;;;;;1.10;1.10;;;;;;;9.59;86.02;99081.84;5045905;28;20064;-74
2022/05/04 03:23:57;;;;;;;0.00;0.00;;;;;;;9.63;85.56;99083.94;5045415;28;20569;-74
2022/05/04 03:26:24;;;;;;;0.00;0.00;;;;;;;9.65;85.27;99079.94;5045727;28;20117;-74
2022/05/04 03:28:50;;;;;;;0.05;0.05;;;;;;;9.67;84.85;99083.16;5054034;28;20025;-73
2022/05/04 03:31:16;;;;;;;0.00;0.00;;;;;;;9.71;84.23;99094.88;5054813;28;20094;-78
2022/05/04 03:33:42;;;;;;;0.00;0.00;;;;;;;9.68;83.60;99091.94;5053667;28;20029;-77
2022/05/04 03:36:07;;;;;;;0.10;0.10;;;;;;;9.72;84.27;99103.72;5053697;28;20228;-79
2022/05/04 03:38:33;;;;;;;0.00;0.00;;;;;;;9.71;83.67;99088.75;5053307;28;20373;-77
2022/05/04 03:40:59;;;;;;;0.20;0.20;;;;;;;9.78;83.64;99106.09;5070038;28;20490;-77
2022/05/04 03:43:24;;;;;;;0.00;0.00;;;;;;;9.80;82.23;99111.16;5055037;28;20548;-76
2022/05/04 03:45:50;;;;;;;0.00;0.00;;;;;;;9.82;82.33;99113.59;5048043;28;20066;-77
2022/05/04 03:48:15;;;;;;;0.00;0.00;;;;;;;9.86;81.46;99120.81;5041805;28;20049;-80
2022/05/04 03:50:41;;;;;;;0.50;0.50;;;;;;;9.88;81.63;99117.84;5069561;28;20029;-83
2022/05/04 03:53:06;;;;;;;0.00;0.00;;;;;;;9.92;81.20;99118.91;5050691;28;20412;-81
2022/05/04 03:55:33;;;;;;;0.32;0.32;;;;;;;9.99;81.05;99123.97;5052932;28;20534;-84
2022/05/04 03:57:59;;;;;;;0.00;0.00;;;;;;;10.00;80.73;99126.38;5053068;28;20567;-80
2022/05/04 04:00:25;;;;;;;0.10;0.10;;;;;;;10.02;80.13;99126.09;5053115;28;20124;-80
2022/05/04 04:02:50;;;;;;;0.00;0.00;;;;;;;10.06;80.18;99129.84;5052274;28;20644;-84
2022/05/04 04:05:16;;;;;;;0.10;0.10;;;;;;;10.07;79.66;99124.22;5053149;28;20519;-81
2022/05/04 04:07:41;;;;;;;0.00;0.00;;;;;;;10.09;78.65;99129.28;5052654;28;20039;-78
2022/05/04 04:10:07;;;;;;;0.00;0.00;;;;;;;10.08;78.68;99133.03;5052490;28;20403;-79
2022/05/04 04:12:33;;;;;;;0.00;0.00;;;;;;;10.05;79.14;99128.25;5052664;28;20032;-78
2022/05/04 04:14:58;;;;;;;0.00;0.00;;;;;;;10.00;79.10;99123.72;5052994;28;20041;-77
2022/05/04 04:18:27;;;;;;;0.00;0.00;;;;;;;10.05;80.65;99120.22;5052422;28;20039;-90
2022/05/04 04:23:56;;;;;;;0.00;0.00;;;;;;;10.05;78.27;99118.34;5053136;28;20087;-78
2022/05/04 04:26:21;;;;;;;0.00;0.00;;;;;;;10.07;78.26;99126.91;5052814;28;20033;-79
2022/05/04 04:28:47;;;;;;;0.10;0.10;;;;;;;10.07;78.75;99126.09;5051176;28;20476;-81
2022/05/04 04:31:13;;;;;;;0.00;0.00;;;;;;;10.13;78.80;99132.22;5051869;28;20025;-78
2022/05/04 04:33:38;;;;;;;0.10;0.10;;;;;;;10.17;79.04;99117.28;5051805;28;20090;-78
2022/05/04 04:36:04;;;;;;;0.00;0.00;;;;;;;10.23;78.00;99127.66;5051945;28;20095;-78
2022/05/04 04:38:30;;;;;;;0.00;0.00;;;;;;;10.31;77.91;99126.28;5052345;28;20072;-78
2022/05/04 04:40:56;;;;;;;2.22;1.00;;;;;;;10.37;77.35;99127.91;5051682;28;20068;-78
2022/05/04 04:43:22;;;;;;;0.00;0.00;;;;;;;10.46;76.93;99135.38;5052054;28;20025;-78
2022/05/04 04:45:49;;;;;;;0.00;0.00;;;;;;;10.52;76.89;99137.78;5053208;28;20029;-78
2022/05/04 04:48:16;;;;;;;0.00;0.00;;;;;;;10.53;77.06;99131.34;5053564;28;20033;-78
2022/05/04 04:50:48;;;;;;;0.35;0.35;;;;;;;10.55;77.11;99128.41;5051878;28;20415;-78
2022/05/04 04:53:14;;;;;;;0.00;0.00;;;;;;;10.68;76.62;99132.34;5052071;28;20112;-79
2022/05/04 04:55:45;;;;;;;0.10;0.10;;;;;;;10.76;75.24;99137.13;5051641;28;20025;-78
2022/05/04 04:58:11;;;;;;;0.00;0.00;;;;;;;10.76;75.48;99145.16;5051886;28;20038;-80
2022/05/04 05:00:36;;;;;;;0.10;0.10;;;;;;;10.82;76.00;99144.06;5051781;28;20127;-79
2022/05/04 05:03:02;;;;;;;0.00;0.00;;;;;;;10.87;75.49;99143.22;5051820;28;20047;-79
2022/05/04 05:05:28;;;;;;;0.00;0.00;;;;;;;10.97;74.81;99140.50;5051834;28;20056;-79
2022/05/04 05:07:53;;;;;;;0.35;0.35;;;;;;;11.20;75.14;99148.94;5051474;28;20029;-79
2022/05/04 05:10:19;;;;;;;0.10;0.10;;;;;;;11.50;74.30;99150.63;5051691;28;20048;-80
2022/05/04 05:12:44;;;;;;;0.00;0.00;;;;;;;11.96;72.67;99145.94;5051537;28;20412;-80
2022/05/04 05:17:54;;;;;;;0.00;0.00;;;;;;;13.07;69.37;99146.03;5052548;28;20466;-80
2022/05/04 05:20:20;;;;;;;0.10;0.10;;;;;;;13.60;68.39;99148.50;5051580;28;20025;-80
2022/05/04 05:22:45;;;;;;;0.10;0.10;;;;;;;14.06;65.98;99152.31;5052663;28;20403;-80
2022/05/04 05:25:11;;;;;;;0.00;0.00;;;;;;;14.58;62.99;99159.44;5052790;28;20078;-80
2022/05/04 05:27:36;;;;;;;0.17;0.17;;;;;;;15.07;62.37;99159.00;5051317;28;20044;-80
2022/05/04 05:30:03;;;;;;;0.00;0.00;;;;;;;15.60;61.54;99158.31;5051573;28;20480;-80
2022/05/04 05:32:28;;;;;;;0.00;0.00;;;;;;;16.20;60.37;99150.09;5051405;28;20028;-80
2022/05/04 05:34:53;;;;;;;0.00;0.00;;;;;;;16.62;57.73;99146.00;5051137;28;20033;-80
2022/05/04 05:37:22;;;;;;;0.00;0.00;;;;;;;17.15;56.17;99153.41;5051195;28;20473;-81
2022/05/04 05:39:47;;;;;;;;;;;;;;;17.51;55.30;99153.06;5052492;28;20571;-80
2022/05/04 05:42:13;;;;;;;0.10;0.10;;;;;;;17.89;53.02;99157.00;5052446;28;20031;-80
2022/05/04 05:44:39;;;;;;;0.10;0.10;;;;;;;18.29;51.66;99155.97;5052351;28;20036;-80
2022/05/04 05:47:05;;;;;;;0.20;0.20;;;;;;;18.53;49.93;99158.09;5051005;28;20405;-80
2022/05/04 05:49:30;;;;;;;0.10;0.10;;;;;;;18.90;49.33;99154.84;5051116;28;20097;-80
2022/05/04 05:51:56;;;;;;;0.03;0.03;;;;;;;19.14;48.56;99162.34;5051772;28;20068;-80
2022/05/04 05:54:22;;;;;;;0.10;0.10;;;;;;;19.47;47.91;99156.97;5050871;28;20021;-79
2022/05/04 05:56:47;;;;;;;0.00;0.00;;;;;;;19.72;46.80;99159.78;5050684;28;20090;-79
2022/05/04 05:59:13;;;;;;;0.00;0.00;;;;;;;19.95;46.78;99152.06;5052072;28;20484;-79
2022/05/04 06:01:38;;;;;;;0.10;0.10;;;;;;;20.36;46.75;99163.13;5050591;28;20036;-79
2022/05/04 06:04:05;;;;;;;0.08;0.05;;;;;;;20.67;45.65;99153.59;5050745;28;20472;-79
2022/05/04 06:06:30;;;;;;;0.00;0.00;;;;;;;21.02;45.42;99144.97;5050772;28;20041;-79
2022/05/04 06:08:55;;;;;;;0.00;0.00;;;;;;;21.37;43.61;99143.59;5051562;28;20025;-79
2022/05/04 06:11:21;;;;;;;0.00;0.00;;;;;;;21.61;42.21;99148.19;5050822;28;20033;-79
2022/05/04 06:13:53;;;;;;;0.00;0.00;;;;;;;21.93;41.70;99155.63;5050472;28;20476;-80
2022/05/04 06:16:19;;;;;;;0.00;0.00;;;;;;;22.07;40.96;99156.78;5050549;28;20036;-79
2022/05/04 06:18:45;;;;;;;0.10;0.10;;;;;;;22.27;40.88;99161.53;5051524;28;20025;-79
2022/05/04 06:21:10;;;;;;;0.00;0.00;;;;;;;22.45;40.02;99159.25;5050484;28;20043;-79
2022/05/04 06:23:36;;;;;;;0.00;0.00;;;;;;;22.53;39.29;99150.91;5051613;28;20529;-80
2022/05/04 06:26:02;;;;;;;0.00;0.00;;;;;;;22.67;39.13;99155.88;5050352;28;20035;-79
2022/05/04 06:28:27;;;;;;;0.00;0.00;;;;;;;22.76;38.38;99157.63;5050384;28;20120;-79
2022/05/04 06:36:20;;;;;;;0.20;0.20;;;;;;;22.74;38.63;99141.63;5051617;28;20503;-80
2022/05/04 06:38:46;;;;;;;0.00;0.00;;;;;;;22.67;38.80;99149.66;5049887;28;20021;-79
2022/05/04 06:41:11;;;;;;;0.00;0.00;;;;;;;22.50;38.32;99146.16;5049997;28;20056;-79
2022/05/04 06:43:37;;;;;;;0.03;0.03;;;;;;;22.35;37.89;99144.19;5049926;28;20472;-80
2022/05/04 06:46:02;;;;;;;0.00;0.00;;;;;;;22.13;38.20;99149.13;5049941;28;20052;-79
2022/05/04 06:48:28;;;;;;;0.00;0.00;;;;;;;22.06;38.45;99149.72;5051393;28;20427;-79
2022/05/04 06:50:53;;;;;;;0.00;0.00;;;;;;;21.90;38.47;99155.16;5049727;28;20025;-79
2022/05/04 06:53:19;;;;;;;0.00;0.00;;;;;;;21.76;38.46;99160.22;5050833;28;20062;-80
2022/05/04 06:55:44;;;;;;;0.00;0.00;;;;;;;21.62;39.60;99149.78;5050710;28;20427;-79
2022/05/04 06:58:09;;;;;;;0.00;0.00;;;;;;;21.50;38.88;99152.53;5050727;28;20032;-80
2022/05/04 07:00:35;;;;;;;0.05;0.05;;;;;;;21.51;39.99;99160.31;5049566;28;20488;-79
2022/05/04 07:03:00;;;;;;;0.08;0.08;;;;;;;21.55;39.98;99161.22;5048533;28;20029;-79
2022/05/04 07:05:26;;;;;;;0.03;0.03;;;;;;;21.54;39.81;99150.69;5050793;28;20090;-79
2022/05/04 07:07:53;;;;;;;0.00;0.00;;;;;;;21.53;39.75;99151.81;5049441;28;20036;-79
2022/05/04 07:10:18;;;;;;;0.00;0.00;;;;;;;21.50;39.98;99150.56;5051001;28;20029;-80
2022/05/04 07:12:44;;;;;;;0.05;0.05;;;;;;;21.48;39.01;99152.06;5051003;28;20016;-79
2022/05/04 07:15:10;;;;;;;0.13;0.13;;;;;;;21.38;39.70;99147.91;5049495;28;20123;-79
2022/05/04 07:17:35;;;;;;;0.00;0.00;;;;;;;21.30;39.98;99149.66;5049393;28;20021;-79
2022/05/04 07:20:01;;;;;;;0.00;0.00;;;;;;;21.27;39.89;99156.53;5049399;28;20029;-79
2022/05/04 07:22:26;;;;;;;0.20;0.20;;;;;;;21.18;40.13;99153.19;5049633;28;20493;-80
2022/05/04 07:24:51;;;;;;;0.10;0.10;;;;;;;21.08;41.42;99146.31;5048966;28;20472;-80
2022/05/04 07:27:17;;;;;;;0.20;0.20;;;;;;;20.92;41.72;99154.38;5049447;28;20029;-79
2022/05/04 07:29:44;;;;;;;0.10;0.10;;;;;;;20.58;42.92;99151.00;5049287;28;20021;-79
2022/05/04 07:32:10;;;;;;;0.00;0.00;;;;;;;20.41;43.77;99154.72;5050768;28;20487;-79
2022/05/04 07:34:36;;;;;;;0.10;0.10;;;;;;;19.97;43.13;99154.47;5049432;28;20029;-79
2022/05/04 07:37:02;;;;;;;0.00;0.00;;;;;;;19.64;44.85;99149.78;5050653;28;20021;-79
2022/05/04 07:42:26;;;;;;;0.10;0.10;;;;;;;19.08;44.90;99159.06;5051207;28;20412;-79
2022/05/04 07:45:04;;;;;;;0.40;0.40;;;;;;;18.71;46.58;99158.78;5049014;28;20025;-79
2022/05/04 07:47:32;;;;;;;0.00;0.00;;;;;;;18.49;47.48;99155.25;5049273;28;20036;-79
2022/05/04 07:49:58;;;;;;;0.80;0.63;;;;;;;18.27;47.94;99145.44;5050369;28;20037;-79
2022/05/04 07:52:24;;;;;;;0.10;0.10;;;;;;;18.28;47.51;99155.16;5049244;28;20033;-79
2022/05/04 07:54:50;;;;;;;0.10;0.10;;;;;;;18.07;47.22;99149.66;5050441;28;20052;-79
2022/05/04 07:57:16;;;;;;;0.00;0.00;;;;;;;18.08;49.18;99156.66;5049226;28;20468;-79
2022/05/04 07:59:41;;;;;;;0.15;0.15;;;;;;;18.21;49.05;99165.69;5049090;28;20025;-80
2022/05/04 08:04:52;;;;;;;0.10;0.10;;;;;;;18.34;48.87;99150.38;5050202;28;20539;-80
2022/05/04 08:07:18;;;;;;;0.00;0.00;;;;;;;18.45;48.33;99151.56;5049017;28;20025;-80
2022/05/04 08:09:44;;;;;;;0.10;0.10;;;;;;;18.59;45.74;99140.53;5048791;28;20064;-80
2022/05/04 08:12:11;;;;;;;0.00;0.00;;;;;;;18.63;46.33;99140.66;5049056;28;20455;-80
2022/05/04 08:14:40;;;;;;;0.10;0.10;;;;;;;18.77;45.89;99149.31;5051910;28;20033;-80
2022/05/04 08:17:06;;;;;;;0.10;0.10;;;;;;;18.93;45.48;99140.66;5052635;28;20025;-80
2022/05/04 08:19:32;;;;;;;0.08;0.08;;;;;;;19.04;43.91;99141.84;5052401;28;20029;-80
2022/05/04 08:21:58;;;;;;;0.10;0.10;;;;;;;19.19;44.91;99146.69;5052387;28;20021;-80
2022/05/04 08:24:24;;;;;;;0.05;0.05;;;;;;;19.34;42.44;99137.16;5052764;28;20029;-80
2022/05/04 08:26:50;;;;;;;0.10;0.10;;;;;;;19.36;43.90;99145.75;5053753;28;20033;-80
2022/05/04 08:29:16;;;;;;;0.00;0.00;;;;;;;19.50;43.57;99148.16;5053890;28;20056;-81
2022/05/04 08:31:41;;;;;;;0.20;0.20;;;;;;;19.55;43.18;99146.38;5052396;28;20071;-80
2022/05/04 08:34:08;;;;;;;0.43;0.43;;;;;;;19.67;44.59;99149.91;5053559;28;20033;-80
2022/05/04 08:36:37;;;;;;;0.10;0.10;;;;;;;19.76;42.67;99140.91;5052517;28;20021;-81
2022/05/04 08:39:04;;;;;;;0.00;0.00;;;;;;;19.80;43.63;99142.63;5052073;28;20087;-81
2022/05/04 08:41:31;;;;;;;0.10;0.10;;;;;;;19.84;43.00;99148.22;5052093;28;20096;-81
2022/05/04 08:43:57;;;;;;;0.10;0.10;;;;;;;19.81;43.54;99148.84;5052054;28;20059;-81
2022/05/04 08:46:24;;;;;;;0.10;0.10;;;;;;;19.75;42.54;99140.13;5053808;28;20079;-80
2022/05/04 08:48:49;;;;;;;0.00;0.00;;;;;;;19.69;42.73;99146.91;5053246;28;20104;-80
2022/05/04 08:51:18;;;;;;;0.00;0.00;;;;;;;19.57;43.71;99147.63;5051940;28;20444;-81
2022/05/04 08:53:45;;;;;;;0.05;0.05;;;;;;;19.62;45.09;99147.44;5052023;28;20032;-80
2022/05/04 08:56:12;;;;;;;0.00;0.00;;;;;;;19.68;44.27;99139.88;5051951;28;20037;-80
2022/05/04 08:58:37;;;;;;;0.20;0.20;;;;;;;19.73;43.94;99145.09;5051744;28;20480;-81
2022/05/04 09:01:04;;;;;;;0.10;0.10;;;;;;;19.76;43.47;99136.28;5052914;28;20036;-81
2022/05/04 09:03:32;;;;;;;0.10;0.10;;;;;;;19.88;43.32;99143.69;5051775;28;20384;-81
2022/05/04 09:05:58;;;;;;;0.00;0.00;;;;;;;19.85;42.84;99138.94;5052671;28;20085;-81
2022/05/04 09:08:24;;;;;;;0.00;0.00;;;;;;;19.78;42.86;99139.44;5051719;28;20546;-80
2022/05/04 09:10:50;;;;;;;0.10;0.10;;;;;;;19.79;43.04;99141.03;5052832;28;20025;-80
2022/05/04 09:13:19;;;;;;;0.00;0.00;;;;;;;19.85;43.12;99138.94;5051587;28;20029;-80
2022/05/04 09:15:44;;;;;;;0.08;0.08;;;;;;;19.87;43.27;99139.38;5051554;28;20033;-80
2022/05/04 09:18:16;;;;;;;0.05;0.05;;;;;;;19.82;42.19;99136.84;5051223;28;20028;-79
2022/05/04 09:20:55;;;;;;;0.00;0.00;;;;;;;19.79;42.71;99134.81;5052933;28;20030;-79
2022/05/04 09:23:32;;;;;;;0.00;0.00;;;;;;;19.79;43.36;99126.69;5051622;28;20033;-79
2022/05/04 09:26:05;;;;;;;0.00;0.00;;;;;;;19.79;43.45;99130.19;5067037;28;20550;-79
2022/05/04 09:28:30;;;;;;;0.00;0.00;;;;;;;19.85;43.59;99125.38;5051460;28;20035;-80
2022/05/04 09:31:04;;;;;;;0.00;0.00;;;;;;;19.88;43.21;99127.41;5051169;28;20045;-79
2022/05/04 09:33:34;;;;;;;0.00;0.00;;;;;;;19.88;42.82;99116.53;5052651;28;20021;-79
2022/05/04 09:36:00;;;;;;;0.00;0.00;;;;;;;19.87;42.53;99112.25;5051184;28;20484;-79
2022/05/04 09:46:50;;;;;;;0.20;0.20;;;;;;;19.67;42.29;99114.66;5052521;28;20040;-80
2022/05/04 09:49:17;;;;;;;;;;;;;;;19.71;42.05;99116.72;5052759;28;20041;-80
2022/05/04 09:51:49;;;;;;;0.00;0.00;;;;;;;19.71;41.11;99116.72;5051049;28;19912;-79
2022/05/04 09:54:18;;;;;;;0.10;0.10;;;;;;;19.74;41.93;99110.59;5050877;28;20060;-80
2022/05/04 09:56:48;;;;;;;0.00;0.00;;;;;;;19.80;42.30;99101.91;5050943;28;20029;-81
2022/05/04 09:59:15;;;;;;;0.00;0.00;;;;;;;19.86;40.65;99110.69;5052041;28;20044;-79
2022/05/04 10:01:42;;;;;;;0.00;0.00;;;;;;;19.90;40.51;99113.50;5050640;28;20036;-80
2022/05/04 10:04:08;;;;;;;0.75;0.35;;;;;;;19.90;40.33;99100.72;5050535;28;20032;-80
2022/05/04 10:06:35;;;;;;;0.10;0.10;;;;;;;19.87;42.79;99106.81;5051539;28;20463;-80
2022/05/04 10:09:03;;;;;;;0.10;0.10;;;;;;;19.80;42.83;99104.63;5051838;28;20040;-80
2022/05/04 10:11:30;;;;;;;0.10;0.10;;;;;;;19.84;43.18;99102.06;5051881;28;20033;-80
2022/05/04 10:14:01;;;;;;;0.10;0.10;;;;;;;19.88;42.16;99102.19;5050219;28;20049;-80
2022/05/04 10:16:31;;;;;;;0.10;0.10;;;;;;;19.91;42.13;99094.16;5050713;28;20056;-80
2022/05/04 10:18:59;;;;;;;0.15;0.15;;;;;;;19.98;42.20;99090.88;5050127;28;20102;-80
2022/05/04 10:21:25;;;;;;;0.10;0.10;;;;;;;19.99;41.48;99089.75;5050444;28;20454;-80
2022/05/04 10:23:55;;;;;;;0.10;0.10;;;;;;;19.97;40.84;99081.19;5051010;28;20427;-80
2022/05/04 10:26:50;;;;;;;0.35;0.35;;;;;;;19.94;39.84;99087.28;5050276;28;20029;-80
2022/05/04 10:32:34;;;;;;;0.00;0.00;;;;;;;20.00;40.04;99067.69;5051346;28;20036;-81
2022/05/04 10:35:22;;;;;;;0.00;0.00;;;;;;;20.07;39.46;99075.28;5049964;28;20068;-80
2022/05/04 10:38:00;;;;;;;;;;;;;;;20.18;39.83;99072.94;5050491;28;20083;-80
2022/05/04 10:40:36;;;;;;;0.00;0.00;;;;;;;20.28;39.93;99066.25;5050030;28;19916;-80
2022/05/04 10:43:09;;;;;;;0.00;0.00;;;;;;;20.35;40.18;99065.66;5051182;28;20032;-80
2022/05/04 10:45:37;;;;;;;0.00;0.00;;;;;;;20.31;38.02;99069.06;5051303;28;20037;-80
2022/05/04 10:48:20;;;;;;;1.40;0.52;;;;;;;20.19;37.05;99060.13;5049751;28;20029;-79
2022/05/04 10:50:55;;;;;;;0.10;0.10;;;;;;;20.13;36.70;99067.72;5049949;28;20064;-80
2022/05/04 10:53:23;;;;;;;0.05;0.05;;;;;;;20.13;37.18;99073.94;5049971;28;20025;-80
2022/05/04 10:56:03;;;;;;;0.00;0.00;;;;;;;19.98;37.03;99080.03;5049895;28;20123;-80
2022/05/04 10:58:46;;;;;;;0.00;0.00;;;;;;;20.05;38.65;99080.25;5051121;28;20036;-80
2022/05/04 11:01:16;;;;;;;0.10;0.10;;;;;;;20.05;38.33;99077.53;5050931;28;20063;-80
2022/05/04 11:04:02;;;;;;;0.03;0.03;;;;;;;20.07;39.18;99080.72;5050609;28;20416;-80
2022/05/04 11:06:35;;;;;;;0.10;0.10;;;;;;;19.99;38.59;99078.91;5051350;28;20055;-79
2022/05/04 11:09:05;;;;;;;0.28;0.28;;;;;;;19.80;38.80;99077.50;5049484;28;20064;-80
2022/05/04 11:11:32;;;;;;;0.10;0.10;;;;;;;19.70;37.47;99083.38;5051004;28;20086;-80
2022/05/04 11:13:58;;;;;;;0.00;0.00;;;;;;;19.56;36.89;99078.25;5050492;28;20021;-80
2022/05/04 11:16:25;;;;;;;0.10;0.10;;;;;;;19.54;37.58;99080.47;5050884;28;20043;-80
2022/05/04 11:18:51;;;;;;;0.30;0.30;;;;;;;19.32;37.72;99073.53;5049467;28;20500;-80
2022/05/04 11:21:18;;;;;;;0.00;0.00;;;;;;;19.14;38.09;99081.03;5049276;28;20029;-80
2022/05/04 11:23:49;;;;;;;0.00;0.00;;;;;;;19.04;38.47;99082.22;5049473;28;20460;-80
2022/05/04 11:26:19;;;;;;;0.08;0.08;;;;;;;18.95;38.41;99068.75;5049238;28;20126;-80
2022/05/04 11:28:46;;;;;;;0.10;0.10;;;;;;;18.96;38.59;99074.97;5049476;28;20499;-80
2022/05/04 11:31:12;;;;;;;0.47;0.47;;;;;;;18.96;39.25;99066.84;5050993;28;20045;-80
2022/05/04 11:33:39;;;;;;;0.38;0.38;;;;;;;19.04;39.52;99069.47;5049367;28;20021;-80
2022/05/04 11:36:05;;;;;;;0.20;0.20;;;;;;;19.11;38.62;99070.84;5049131;28;20025;-80
2022/05/04 11:38:30;;;;;;;0.00;0.00;;;;;;;19.16;39.08;99046.25;5049459;28;20622;-80
2022/05/04 11:40:55;;;;;;;3.60;1.27;;;;;;;19.31;38.26;99067.31;5049019;28;20059;-80
2022/05/04 11:43:26;;;;;;;0.10;0.10;;;;;;;19.34;38.09;99055.00;5050591;28;20498;-80
2022/05/04 11:45:52;;;;;;;0.10;0.10;;;;;;;19.52;38.21;99045.56;5049322;28;20115;-80
2022/05/04 11:48:18;;;;;;;0.28;0.28;;;;;;;19.64;39.31;99042.09;5049821;28;20029;-80
2022/05/04 11:50:45;;;;;;;0.10;0.10;;;;;;;19.76;38.26;99045.94;5053285;28;20400;-80
2022/05/04 11:53:11;;;;;;;0.35;0.35;;;;;;;19.83;37.66;99044.31;5052961;28;20032;-80
2022/05/04 11:55:36;;;;;;;0.00;0.00;;;;;;;19.84;37.76;99043.16;5053214;28;20029;-80
2022/05/04 11:58:10;;;;;;;0.10;0.10;;;;;;;19.83;37.08;99043.47;5052935;28;20549;-80
2022/05/04 12:00:36;;;;;;;0.20;0.20;;;;;;;19.81;37.46;99043.81;5053051;28;20052;-80
2022/05/04 12:03:04;;;;;;;0.17;0.17;;;;;;;19.81;38.01;99040.28;5054033;28;20024;-80
2022/05/04 12:05:30;;;;;;;0.00;0.00;;;;;;;19.76;37.91;99035.91;5053064;28;20067;-80
2022/05/04 12:07:55;;;;;;;0.10;0.10;;;;;;;19.74;39.15;99019.16;5053913;28;20186;-80
2022/05/04 12:10:21;;;;;;;0.00;0.00;;;;;;;19.72;38.73;99021.41;5054432;28;20067;-80
2022/05/04 12:12:47;;;;;;;0.15;0.15;;;;;;;19.71;39.65;99016.31;5053872;28;20028;-80